sensor_id;sensor_type;location;lat;lon;timestamp;P1;durP1;ratioP1;P2;durP2;ratioP2
21014;SDS011;19207;-23.482;-46.500;2022-10-16T00:02:02;15.55;;;7.93;;
21014;SDS011;19207;-23.482;-46.500;2022-10-16T00:04:50;27.33;;;7.60;;
21014;SDS011;19207;-23.482;-46.500;2022-10-16T00:07:36;19.37;;;7.30;;
21014;SDS011;19207;-23.482;-46.500;2022-10-16T00:10:23;16.25;;;6.95;;
21014;SDS011;19207;-23.482;-46.500;2022-10-16T00:13:10;24.42;;;7.28;;
21014;SDS011;19207;-23.482;-46.500;2022-10-16T00:15:57;22.20;;;7.53;;
21014;SDS011;19207;-23.482;-46.500;2022-10-16T00:18:44;18.30;;;6.72;;
21014;SDS011;19207;-23.482;-46.500;2022-10-16T00:21:31;12.07;;;6.70;;
21014;SDS011;19207;-23.482;-46.500;2022-10-16T00:24:36;22.90;;;7.70;;
21014;SDS011;19207;-23.482;-46.500;2022-10-16T00:27:23;14.93;;;6.40;;
21014;SDS011;19207;-23.482;-46.500;2022-10-16T00:30:09;18.92;;;7.03;;
21014;SDS011;19207;-23.482;-46.500;2022-10-16T00:32:56;19.60;;;6.65;;
21014;SDS011;19207;-23.482;-46.500;2022-10-16T00:35:43;14.35;;;5.62;;
21014;SDS011;19207;-23.482;-46.500;2022-10-16T00:38:29;19.27;;;7.07;;
21014;SDS011;19207;-23.482;-46.500;2022-10-16T00:41:17;21.00;;;7.25;;
21014;SDS011;19207;-23.482;-46.500;2022-10-16T00:44:40;13.48;;;6.45;;
21014;SDS011;19207;-23.482;-46.500;2022-10-16T00:47:11;15.70;;;6.20;;
21014;SDS011;19207;-23.482;-46.500;2022-10-16T00:50:12;20.92;;;6.47;;
21014;SDS011;19207;-23.482;-46.500;2022-10-16T00:53:00;13.80;;;6.07;;
21014;SDS011;19207;-23.482;-46.500;2022-10-16T00:55:48;14.43;;;5.87;;
21014;SDS011;19207;-23.482;-46.500;2022-10-16T00:58:34;24.87;;;7.70;;
21014;SDS011;19207;-23.482;-46.500;2022-10-16T01:01:21;17.87;;;8.93;;
21014;SDS011;19207;-23.482;-46.500;2022-10-16T01:04:07;26.50;;;9.57;;
21014;SDS011;19207;-23.482;-46.500;2022-10-16T01:10:25;27.67;;;10.75;;
21014;SDS011;19207;-23.482;-46.500;2022-10-16T01:13:15;21.58;;;9.45;;
21014;SDS011;19207;-23.482;-46.500;2022-10-16T01:16:08;29.37;;;9.73;;
21014;SDS011;19207;-23.482;-46.500;2022-10-16T01:19:01;29.35;;;9.35;;
21014;SDS011;19207;-23.482;-46.500;2022-10-16T01:21:49;27.60;;;10.10;;
21014;SDS011;19207;-23.482;-46.500;2022-10-16T01:24:41;23.45;;;9.77;;
21014;SDS011;19207;-23.482;-46.500;2022-10-16T01:27:30;24.48;;;9.98;;
21014;SDS011;19207;-23.482;-46.500;2022-10-16T01:30:25;27.08;;;10.38;;
21014;SDS011;19207;-23.482;-46.500;2022-10-16T01:33:17;22.52;;;8.98;;
21014;SDS011;19207;-23.482;-46.500;2022-10-16T01:36:21;21.17;;;8.77;;
21014;SDS011;19207;-23.482;-46.500;2022-10-16T01:39:09;23.55;;;11.90;;
21014;SDS011;19207;-23.482;-46.500;2022-10-16T01:42:19;29.45;;;12.40;;
21014;SDS011;19207;-23.482;-46.500;2022-10-16T01:45:04;25.20;;;9.95;;
21014;SDS011;19207;-23.482;-46.500;2022-10-16T01:47:52;26.45;;;9.75;;
21014;SDS011;19207;-23.482;-46.500;2022-10-16T01:50:40;22.40;;;8.98;;
21014;SDS011;19207;-23.482;-46.500;2022-10-16T01:53:27;18.55;;;7.18;;
21014;SDS011;19207;-23.482;-46.500;2022-10-16T01:56:14;17.30;;;6.80;;
21014;SDS011;19207;-23.482;-46.500;2022-10-16T01:59:03;18.12;;;7.60;;
21014;SDS011;19207;-23.482;-46.500;2022-10-16T02:02:09;25.05;;;7.80;;
21014;SDS011;19207;-23.482;-46.500;2022-10-16T02:05:08;16.58;;;7.95;;
21014;SDS011;19207;-23.482;-46.500;2022-10-16T02:07:57;18.67;;;7.50;;
21014;SDS011;19207;-23.482;-46.500;2022-10-16T02:10:44;21.87;;;8.65;;
21014;SDS011;19207;-23.482;-46.500;2022-10-16T02:13:33;21.65;;;8.70;;
21014;SDS011;19207;-23.482;-46.500;2022-10-16T02:16:23;24.83;;;9.05;;
21014;SDS011;19207;-23.482;-46.500;2022-10-16T02:19:09;21.10;;;8.57;;
21014;SDS011;19207;-23.482;-46.500;2022-10-16T02:21:58;22.27;;;8.60;;
21014;SDS011;19207;-23.482;-46.500;2022-10-16T02:24:51;24.95;;;8.55;;
21014;SDS011;19207;-23.482;-46.500;2022-10-16T02:30:41;23.85;;;8.98;;
21014;SDS011;19207;-23.482;-46.500;2022-10-16T02:33:29;22.65;;;8.00;;
21014;SDS011;19207;-23.482;-46.500;2022-10-16T02:36:16;23.77;;;8.88;;
21014;SDS011;19207;-23.482;-46.500;2022-10-16T02:39:02;17.85;;;6.90;;
21014;SDS011;19207;-23.482;-46.500;2022-10-16T02:41:50;19.55;;;9.07;;
21014;SDS011;19207;-23.482;-46.500;2022-10-16T02:44:37;31.08;;;11.77;;
21014;SDS011;19207;-23.482;-46.500;2022-10-16T02:47:23;31.12;;;13.40;;
21014;SDS011;19207;-23.482;-46.500;2022-10-16T02:50:10;26.52;;;9.52;;
21014;SDS011;19207;-23.482;-46.500;2022-10-16T02:52:56;31.95;;;12.00;;
21014;SDS011;19207;-23.482;-46.500;2022-10-16T02:55:43;31.48;;;12.25;;
21014;SDS011;19207;-23.482;-46.500;2022-10-16T02:58:30;23.65;;;11.15;;
21014;SDS011;19207;-23.482;-46.500;2022-10-16T03:01:16;23.65;;;10.05;;
21014;SDS011;19207;-23.482;-46.500;2022-10-16T03:04:03;20.05;;;8.85;;
21014;SDS011;19207;-23.482;-46.500;2022-10-16T03:06:49;27.20;;;9.95;;
21014;SDS011;19207;-23.482;-46.500;2022-10-16T03:09:36;25.27;;;9.85;;
21014;SDS011;19207;-23.482;-46.500;2022-10-16T03:12:23;26.65;;;10.27;;
21014;SDS011;19207;-23.482;-46.500;2022-10-16T03:15:10;28.23;;;9.57;;
21014;SDS011;19207;-23.482;-46.500;2022-10-16T03:18:00;26.75;;;9.18;;
21014;SDS011;19207;-23.482;-46.500;2022-10-16T03:20:46;16.60;;;8.40;;
21014;SDS011;19207;-23.482;-46.500;2022-10-16T03:23:33;27.98;;;9.98;;
21014;SDS011;19207;-23.482;-46.500;2022-10-16T03:26:20;17.42;;;7.28;;
21014;SDS011;19207;-23.482;-46.500;2022-10-16T03:29:06;14.10;;;6.80;;
21014;SDS011;19207;-23.482;-46.500;2022-10-16T03:31:53;22.95;;;7.62;;
21014;SDS011;19207;-23.482;-46.500;2022-10-16T03:34:39;22.92;;;6.87;;
21014;SDS011;19207;-23.482;-46.500;2022-10-16T03:37:26;16.75;;;6.30;;
21014;SDS011;19207;-23.482;-46.500;2022-10-16T03:40:12;26.30;;;6.82;;
21014;SDS011;19207;-23.482;-46.500;2022-10-16T03:42:59;20.48;;;6.87;;
21014;SDS011;19207;-23.482;-46.500;2022-10-16T03:45:46;19.75;;;6.30;;
21014;SDS011;19207;-23.482;-46.500;2022-10-16T03:48:33;15.80;;;5.97;;
21014;SDS011;19207;-23.482;-46.500;2022-10-16T03:51:19;20.37;;;6.25;;
21014;SDS011;19207;-23.482;-46.500;2022-10-16T03:54:06;16.98;;;5.43;;
21014;SDS011;19207;-23.482;-46.500;2022-10-16T03:56:53;17.70;;;5.25;;
21014;SDS011;19207;-23.482;-46.500;2022-10-16T03:59:39;12.40;;;4.65;;
21014;SDS011;19207;-23.482;-46.500;2022-10-16T04:02:25;15.07;;;5.43;;
21014;SDS011;19207;-23.482;-46.500;2022-10-16T04:05:12;17.85;;;5.72;;
21014;SDS011;19207;-23.482;-46.500;2022-10-16T04:07:58;19.40;;;6.40;;
21014;SDS011;19207;-23.482;-46.500;2022-10-16T04:10:45;15.32;;;6.80;;
21014;SDS011;19207;-23.482;-46.500;2022-10-16T04:13:33;16.70;;;7.50;;
21014;SDS011;19207;-23.482;-46.500;2022-10-16T04:16:20;22.00;;;7.43;;
21014;SDS011;19207;-23.482;-46.500;2022-10-16T04:19:07;21.37;;;8.85;;
21014;SDS011;19207;-23.482;-46.500;2022-10-16T04:21:53;23.12;;;8.98;;
21014;SDS011;19207;-23.482;-46.500;2022-10-16T04:24:40;21.05;;;8.27;;
21014;SDS011;19207;-23.482;-46.500;2022-10-16T04:27:26;18.20;;;8.05;;
21014;SDS011;19207;-23.482;-46.500;2022-10-16T04:30:13;18.00;;;7.70;;
21014;SDS011;19207;-23.482;-46.500;2022-10-16T04:33:00;26.35;;;6.87;;
21014;SDS011;19207;-23.482;-46.500;2022-10-16T04:35:47;20.88;;;7.03;;
21014;SDS011;19207;-23.482;-46.500;2022-10-16T04:38:33;17.02;;;7.32;;
21014;SDS011;19207;-23.482;-46.500;2022-10-16T04:41:22;22.73;;;8.38;;
21014;SDS011;19207;-23.482;-46.500;2022-10-16T04:44:09;20.73;;;7.50;;
21014;SDS011;19207;-23.482;-46.500;2022-10-16T04:46:56;16.85;;;7.60;;
21014;SDS011;19207;-23.482;-46.500;2022-10-16T04:49:42;17.70;;;7.10;;
21014;SDS011;19207;-23.482;-46.500;2022-10-16T04:52:29;25.88;;;12.85;;
21014;SDS011;19207;-23.482;-46.500;2022-10-16T04:55:16;27.23;;;8.52;;
21014;SDS011;19207;-23.482;-46.500;2022-10-16T04:58:02;23.08;;;7.93;;
21014;SDS011;19207;-23.482;-46.500;2022-10-16T05:00:49;23.60;;;7.37;;
21014;SDS011;19207;-23.482;-46.500;2022-10-16T05:03:35;18.33;;;7.50;;
21014;SDS011;19207;-23.482;-46.500;2022-10-16T05:06:22;17.37;;;7.47;;
21014;SDS011;19207;-23.482;-46.500;2022-10-16T05:09:08;20.55;;;6.62;;
21014;SDS011;19207;-23.482;-46.500;2022-10-16T05:11:55;20.20;;;6.25;;
21014;SDS011;19207;-23.482;-46.500;2022-10-16T05:14:42;14.57;;;5.85;;
21014;SDS011;19207;-23.482;-46.500;2022-10-16T05:17:29;21.75;;;6.18;;
21014;SDS011;19207;-23.482;-46.500;2022-10-16T05:20:15;15.90;;;6.75;;
21014;SDS011;19207;-23.482;-46.500;2022-10-16T05:23:02;13.20;;;6.00;;
21014;SDS011;19207;-23.482;-46.500;2022-10-16T05:25:53;22.83;;;6.35;;
21014;SDS011;19207;-23.482;-46.500;2022-10-16T05:28:40;16.87;;;6.40;;
21014;SDS011;19207;-23.482;-46.500;2022-10-16T05:31:26;21.85;;;6.25;;
21014;SDS011;19207;-23.482;-46.500;2022-10-16T05:34:13;19.40;;;5.95;;
21014;SDS011;19207;-23.482;-46.500;2022-10-16T05:36:59;20.52;;;6.40;;
21014;SDS011;19207;-23.482;-46.500;2022-10-16T05:39:46;13.45;;;6.03;;
21014;SDS011;19207;-23.482;-46.500;2022-10-16T05:42:33;17.25;;;5.90;;
21014;SDS011;19207;-23.482;-46.500;2022-10-16T05:45:20;14.30;;;5.70;;
21014;SDS011;19207;-23.482;-46.500;2022-10-16T05:48:07;17.87;;;6.15;;
21014;SDS011;19207;-23.482;-46.500;2022-10-16T05:51:03;18.55;;;5.80;;
21014;SDS011;19207;-23.482;-46.500;2022-10-16T05:53:50;11.18;;;5.37;;
21014;SDS011;19207;-23.482;-46.500;2022-10-16T05:56:36;16.05;;;5.68;;
21014;SDS011;19207;-23.482;-46.500;2022-10-16T05:59:23;13.75;;;5.10;;
21014;SDS011;19207;-23.482;-46.500;2022-10-16T06:02:13;15.85;;;5.15;;
21014;SDS011;19207;-23.482;-46.500;2022-10-16T06:05:00;24.48;;;6.87;;
21014;SDS011;19207;-23.482;-46.500;2022-10-16T06:07:46;16.75;;;5.60;;
21014;SDS011;19207;-23.482;-46.500;2022-10-16T06:10:33;15.70;;;5.28;;
21014;SDS011;19207;-23.482;-46.500;2022-10-16T06:13:21;13.25;;;5.70;;
21014;SDS011;19207;-23.482;-46.500;2022-10-16T06:16:09;15.52;;;5.87;;
21014;SDS011;19207;-23.482;-46.500;2022-10-16T06:18:56;12.43;;;5.57;;
21014;SDS011;19207;-23.482;-46.500;2022-10-16T06:21:44;13.52;;;5.72;;
21014;SDS011;19207;-23.482;-46.500;2022-10-16T06:24:31;9.77;;;4.78;;
21014;SDS011;19207;-23.482;-46.500;2022-10-16T06:27:17;16.73;;;4.95;;
21014;SDS011;19207;-23.482;-46.500;2022-10-16T06:30:04;19.60;;;5.43;;
21014;SDS011;19207;-23.482;-46.500;2022-10-16T06:32:51;16.70;;;5.10;;
21014;SDS011;19207;-23.482;-46.500;2022-10-16T06:35:37;14.52;;;4.85;;
21014;SDS011;19207;-23.482;-46.500;2022-10-16T06:38:24;16.23;;;5.35;;
21014;SDS011;19207;-23.482;-46.500;2022-10-16T06:41:17;14.25;;;4.55;;
21014;SDS011;19207;-23.482;-46.500;2022-10-16T06:44:07;10.35;;;4.78;;
21014;SDS011;19207;-23.482;-46.500;2022-10-16T06:46:54;11.60;;;4.50;;
21014;SDS011;19207;-23.482;-46.500;2022-10-16T06:49:41;14.35;;;4.87;;
21014;SDS011;19207;-23.482;-46.500;2022-10-16T06:52:27;13.15;;;4.90;;
21014;SDS011;19207;-23.482;-46.500;2022-10-16T06:55:14;13.90;;;4.72;;
21014;SDS011;19207;-23.482;-46.500;2022-10-16T06:58:01;20.27;;;5.97;;
21014;SDS011;19207;-23.482;-46.500;2022-10-16T07:00:48;23.30;;;4.93;;
21014;SDS011;19207;-23.482;-46.500;2022-10-16T07:03:38;13.68;;;4.60;;
21014;SDS011;19207;-23.482;-46.500;2022-10-16T07:06:25;12.55;;;4.50;;
21014;SDS011;19207;-23.482;-46.500;2022-10-16T07:09:12;20.48;;;5.90;;
21014;SDS011;19207;-23.482;-46.500;2022-10-16T07:11:59;21.70;;;6.28;;
21014;SDS011;19207;-23.482;-46.500;2022-10-16T07:14:47;13.80;;;5.37;;
21014;SDS011;19207;-23.482;-46.500;2022-10-16T07:17:34;15.02;;;5.40;;
21014;SDS011;19207;-23.482;-46.500;2022-10-16T07:20:21;13.27;;;5.93;;
21014;SDS011;19207;-23.482;-46.500;2022-10-16T07:23:07;12.95;;;5.45;;
21014;SDS011;19207;-23.482;-46.500;2022-10-16T07:25:54;14.55;;;5.05;;
21014;SDS011;19207;-23.482;-46.500;2022-10-16T07:28:40;12.90;;;5.07;;
21014;SDS011;19207;-23.482;-46.500;2022-10-16T07:31:28;16.20;;;5.72;;
21014;SDS011;19207;-23.482;-46.500;2022-10-16T07:34:15;15.63;;;6.35;;
21014;SDS011;19207;-23.482;-46.500;2022-10-16T07:37:02;17.95;;;6.35;;
21014;SDS011;19207;-23.482;-46.500;2022-10-16T07:39:49;16.67;;;7.15;;
21014;SDS011;19207;-23.482;-46.500;2022-10-16T07:42:35;22.52;;;6.90;;
21014;SDS011;19207;-23.482;-46.500;2022-10-16T07:45:22;18.15;;;7.80;;
21014;SDS011;19207;-23.482;-46.500;2022-10-16T07:48:09;22.77;;;9.15;;
21014;SDS011;19207;-23.482;-46.500;2022-10-16T07:50:59;24.35;;;8.70;;
21014;SDS011;19207;-23.482;-46.500;2022-10-16T07:53:45;26.35;;;8.75;;
21014;SDS011;19207;-23.482;-46.500;2022-10-16T07:56:32;23.75;;;8.75;;
21014;SDS011;19207;-23.482;-46.500;2022-10-16T07:59:19;26.05;;;9.70;;
21014;SDS011;19207;-23.482;-46.500;2022-10-16T08:02:07;24.00;;;10.10;;
21014;SDS011;19207;-23.482;-46.500;2022-10-16T08:04:53;36.50;;;15.10;;
21014;SDS011;19207;-23.482;-46.500;2022-10-16T08:07:40;34.88;;;15.23;;
21014;SDS011;19207;-23.482;-46.500;2022-10-16T08:10:27;35.55;;;16.67;;
21014;SDS011;19207;-23.482;-46.500;2022-10-16T08:13:14;38.20;;;15.98;;
21014;SDS011;19207;-23.482;-46.500;2022-10-16T08:16:01;34.10;;;13.93;;
21014;SDS011;19207;-23.482;-46.500;2022-10-16T08:18:53;45.50;;;15.02;;
21014;SDS011;19207;-23.482;-46.500;2022-10-16T08:21:39;39.42;;;14.00;;
21014;SDS011;19207;-23.482;-46.500;2022-10-16T08:24:26;39.20;;;12.10;;
21014;SDS011;19207;-23.482;-46.500;2022-10-16T08:27:13;40.38;;;13.68;;
21014;SDS011;19207;-23.482;-46.500;2022-10-16T08:29:59;34.60;;;12.50;;
21014;SDS011;19207;-23.482;-46.500;2022-10-16T08:32:46;41.45;;;12.05;;
21014;SDS011;19207;-23.482;-46.500;2022-10-16T08:35:32;31.33;;;11.63;;
21014;SDS011;19207;-23.482;-46.500;2022-10-16T08:38:19;39.63;;;11.73;;
21014;SDS011;19207;-23.482;-46.500;2022-10-16T08:41:14;31.73;;;11.40;;
21014;SDS011;19207;-23.482;-46.500;2022-10-16T08:47:20;35.92;;;11.48;;
21014;SDS011;19207;-23.482;-46.500;2022-10-16T08:50:10;29.40;;;10.57;;
21014;SDS011;19207;-23.482;-46.500;2022-10-16T08:52:56;29.12;;;10.57;;
21014;SDS011;19207;-23.482;-46.500;2022-10-16T08:58:30;28.85;;;11.50;;
21014;SDS011;19207;-23.482;-46.500;2022-10-16T09:01:17;21.12;;;10.23;;
21014;SDS011;19207;-23.482;-46.500;2022-10-16T09:13:14;25.35;;;10.05;;
21014;SDS011;19207;-23.482;-46.500;2022-10-16T09:16:11;27.52;;;8.70;;
21014;SDS011;19207;-23.482;-46.500;2022-10-16T09:19:10;22.17;;;9.52;;
21014;SDS011;19207;-23.482;-46.500;2022-10-16T09:22:01;28.67;;;11.07;;
21014;SDS011;19207;-23.482;-46.500;2022-10-16T09:24:57;25.92;;;9.60;;
21014;SDS011;19207;-23.482;-46.500;2022-10-16T09:27:46;26.05;;;8.70;;
21014;SDS011;19207;-23.482;-46.500;2022-10-16T09:30:32;20.23;;;8.05;;
21014;SDS011;19207;-23.482;-46.500;2022-10-16T09:33:20;23.30;;;8.43;;
21014;SDS011;19207;-23.482;-46.500;2022-10-16T09:36:08;20.23;;;8.45;;
21014;SDS011;19207;-23.482;-46.500;2022-10-16T09:39:02;20.77;;;8.23;;
21014;SDS011;19207;-23.482;-46.500;2022-10-16T09:41:49;25.67;;;9.13;;
21014;SDS011;19207;-23.482;-46.500;2022-10-16T09:44:35;24.95;;;9.07;;
21014;SDS011;19207;-23.482;-46.500;2022-10-16T09:47:28;23.87;;;9.52;;
21014;SDS011;19207;-23.482;-46.500;2022-10-16T09:50:25;33.67;;;11.38;;
21014;SDS011;19207;-23.482;-46.500;2022-10-16T09:53:13;24.48;;;10.73;;
21014;SDS011;19207;-23.482;-46.500;2022-10-16T09:55:59;23.00;;;9.25;;
21014;SDS011;19207;-23.482;-46.500;2022-10-16T09:58:50;16.62;;;7.87;;
21014;SDS011;19207;-23.482;-46.500;2022-10-16T10:01:41;19.85;;;7.57;;
21014;SDS011;19207;-23.482;-46.500;2022-10-16T10:04:36;26.23;;;8.90;;
21014;SDS011;19207;-23.482;-46.500;2022-10-16T10:07:24;19.50;;;6.85;;
21014;SDS011;19207;-23.482;-46.500;2022-10-16T10:10:21;27.15;;;7.07;;
21014;SDS011;19207;-23.482;-46.500;2022-10-16T10:13:21;14.63;;;6.68;;
21014;SDS011;19207;-23.482;-46.500;2022-10-16T10:16:08;16.00;;;7.20;;
21014;SDS011;19207;-23.482;-46.500;2022-10-16T10:19:01;16.75;;;7.00;;
21014;SDS011;19207;-23.482;-46.500;2022-10-16T10:21:48;19.95;;;6.68;;
21014;SDS011;19207;-23.482;-46.500;2022-10-16T10:24:35;13.93;;;6.50;;
21014;SDS011;19207;-23.482;-46.500;2022-10-16T10:27:27;20.62;;;7.50;;
21014;SDS011;19207;-23.482;-46.500;2022-10-16T10:47:27;14.48;;;6.72;;
21014;SDS011;19207;-23.482;-46.500;2022-10-16T10:53:31;13.88;;;6.93;;
21014;SDS011;19207;-23.482;-46.500;2022-10-16T11:02:23;16.55;;;6.15;;
21014;SDS011;19207;-23.482;-46.500;2022-10-16T11:11:05;17.30;;;5.07;;
21014;SDS011;19207;-23.482;-46.500;2022-10-16T11:16:52;12.18;;;5.07;;
21014;SDS011;19207;-23.482;-46.500;2022-10-16T11:25:26;10.57;;;4.93;;
21014;SDS011;19207;-23.482;-46.500;2022-10-16T11:28:20;10.13;;;4.70;;
21014;SDS011;19207;-23.482;-46.500;2022-10-16T11:31:17;14.43;;;4.47;;
21014;SDS011;19207;-23.482;-46.500;2022-10-16T11:37:07;6.10;;;3.92;;
21014;SDS011;19207;-23.482;-46.500;2022-10-16T11:39:56;9.02;;;4.12;;
21014;SDS011;19207;-23.482;-46.500;2022-10-16T11:42:46;8.60;;;4.03;;
21014;SDS011;19207;-23.482;-46.500;2022-10-16T11:45:36;10.60;;;3.67;;
21014;SDS011;19207;-23.482;-46.500;2022-10-16T11:52:03;13.30;;;4.45;;
21014;SDS011;19207;-23.482;-46.500;2022-10-16T11:57:33;10.70;;;4.15;;
21014;SDS011;19207;-23.482;-46.500;2022-10-16T12:01:07;13.25;;;4.93;;
21014;SDS011;19207;-23.482;-46.500;2022-10-16T12:09:23;10.55;;;4.15;;
21014;SDS011;19207;-23.482;-46.500;2022-10-16T12:12:27;7.95;;;4.12;;
21014;SDS011;19207;-23.482;-46.500;2022-10-16T12:18:20;8.13;;;4.25;;
21014;SDS011;19207;-23.482;-46.500;2022-10-16T12:21:07;11.38;;;3.92;;
21014;SDS011;19207;-23.482;-46.500;2022-10-16T12:23:55;9.63;;;3.72;;
21014;SDS011;19207;-23.482;-46.500;2022-10-16T12:26:42;9.55;;;3.83;;
21014;SDS011;19207;-23.482;-46.500;2022-10-16T12:29:39;10.75;;;4.15;;
21014;SDS011;19207;-23.482;-46.500;2022-10-16T12:32:31;7.37;;;4.00;;
21014;SDS011;19207;-23.482;-46.500;2022-10-16T12:35:22;8.25;;;4.15;;
21014;SDS011;19207;-23.482;-46.500;2022-10-16T12:41:03;16.62;;;4.37;;
21014;SDS011;19207;-23.482;-46.500;2022-10-16T12:43:51;13.40;;;4.28;;
21014;SDS011;19207;-23.482;-46.500;2022-10-16T12:46:39;9.63;;;4.22;;
21014;SDS011;19207;-23.482;-46.500;2022-10-16T12:49:30;6.45;;;4.10;;
21014;SDS011;19207;-23.482;-46.500;2022-10-16T12:52:34;9.48;;;4.43;;
21014;SDS011;19207;-23.482;-46.500;2022-10-16T12:55:22;15.50;;;3.97;;
21014;SDS011;19207;-23.482;-46.500;2022-10-16T12:58:13;8.55;;;4.30;;
21014;SDS011;19207;-23.482;-46.500;2022-10-16T13:01:19;19.73;;;4.10;;
21014;SDS011;19207;-23.482;-46.500;2022-10-16T13:10:21;7.22;;;4.07;;
21014;SDS011;19207;-23.482;-46.500;2022-10-16T13:21:53;8.82;;;4.60;;
21014;SDS011;19207;-23.482;-46.500;2022-10-16T13:27:44;11.25;;;4.80;;
21014;SDS011;19207;-23.482;-46.500;2022-10-16T13:30:39;10.13;;;4.25;;
21014;SDS011;19207;-23.482;-46.500;2022-10-16T13:36:27;8.75;;;4.60;;
21014;SDS011;19207;-23.482;-46.500;2022-10-16T13:39:15;10.27;;;4.47;;
21014;SDS011;19207;-23.482;-46.500;2022-10-16T13:42:12;9.45;;;4.37;;
21014;SDS011;19207;-23.482;-46.500;2022-10-16T13:44:59;9.27;;;4.55;;
21014;SDS011;19207;-23.482;-46.500;2022-10-16T13:47:47;14.02;;;4.90;;
21014;SDS011;19207;-23.482;-46.500;2022-10-16T13:50:33;12.65;;;4.70;;
21014;SDS011;19207;-23.482;-46.500;2022-10-16T13:53:20;7.75;;;4.20;;
21014;SDS011;19207;-23.482;-46.500;2022-10-16T13:56:07;9.38;;;4.53;;
21014;SDS011;19207;-23.482;-46.500;2022-10-16T14:01:45;10.60;;;4.47;;
21014;SDS011;19207;-23.482;-46.500;2022-10-16T14:04:32;10.95;;;4.32;;
21014;SDS011;19207;-23.482;-46.500;2022-10-16T14:07:26;8.80;;;4.40;;
21014;SDS011;19207;-23.482;-46.500;2022-10-16T14:10:18;10.70;;;4.32;;
21014;SDS011;19207;-23.482;-46.500;2022-10-16T14:13:07;9.10;;;4.50;;
21014;SDS011;19207;-23.482;-46.500;2022-10-16T14:15:53;10.70;;;4.75;;
21014;SDS011;19207;-23.482;-46.500;2022-10-16T14:18:45;11.20;;;4.75;;
21014;SDS011;19207;-23.482;-46.500;2022-10-16T14:21:33;14.38;;;4.78;;
21014;SDS011;19207;-23.482;-46.500;2022-10-16T14:24:25;7.50;;;4.65;;
21014;SDS011;19207;-23.482;-46.500;2022-10-16T14:27:32;10.18;;;4.43;;
21014;SDS011;19207;-23.482;-46.500;2022-10-16T14:30:21;9.57;;;4.32;;
21014;SDS011;19207;-23.482;-46.500;2022-10-16T14:36:15;20.75;;;4.40;;
21014;SDS011;19207;-23.482;-46.500;2022-10-16T14:39:13;10.38;;;4.30;;
21014;SDS011;19207;-23.482;-46.500;2022-10-16T14:42:02;9.52;;;4.60;;
21014;SDS011;19207;-23.482;-46.500;2022-10-16T14:44:50;9.98;;;4.85;;
21014;SDS011;19207;-23.482;-46.500;2022-10-16T14:47:46;11.00;;;4.95;;
21014;SDS011;19207;-23.482;-46.500;2022-10-16T14:50:34;6.95;;;4.55;;
21014;SDS011;19207;-23.482;-46.500;2022-10-16T14:53:21;9.75;;;4.43;;
21014;SDS011;19207;-23.482;-46.500;2022-10-16T14:56:08;10.18;;;4.60;;
21014;SDS011;19207;-23.482;-46.500;2022-10-16T14:58:55;10.50;;;4.45;;
21014;SDS011;19207;-23.482;-46.500;2022-10-16T15:01:45;13.68;;;4.37;;
21014;SDS011;19207;-23.482;-46.500;2022-10-16T15:04:31;6.95;;;4.37;;
21014;SDS011;19207;-23.482;-46.500;2022-10-16T15:07:18;8.65;;;4.30;;
21014;SDS011;19207;-23.482;-46.500;2022-10-16T15:10:06;11.15;;;4.60;;
21014;SDS011;19207;-23.482;-46.500;2022-10-16T15:12:53;9.38;;;4.50;;
21014;SDS011;19207;-23.482;-46.500;2022-10-16T15:15:42;9.77;;;4.43;;
21014;SDS011;19207;-23.482;-46.500;2022-10-16T15:18:29;6.65;;;4.30;;
21014;SDS011;19207;-23.482;-46.500;2022-10-16T15:21:34;6.40;;;4.18;;
21014;SDS011;19207;-23.482;-46.500;2022-10-16T15:24:21;13.15;;;4.85;;
21014;SDS011;19207;-23.482;-46.500;2022-10-16T15:27:08;13.75;;;4.62;;
21014;SDS011;19207;-23.482;-46.500;2022-10-16T15:29:54;6.62;;;4.35;;
21014;SDS011;19207;-23.482;-46.500;2022-10-16T15:32:40;11.30;;;4.60;;
21014;SDS011;19207;-23.482;-46.500;2022-10-16T15:35:27;11.60;;;4.37;;
21014;SDS011;19207;-23.482;-46.500;2022-10-16T15:38:14;10.38;;;4.60;;
21014;SDS011;19207;-23.482;-46.500;2022-10-16T15:41:01;7.68;;;4.57;;
21014;SDS011;19207;-23.482;-46.500;2022-10-16T15:43:48;8.10;;;5.10;;
21014;SDS011;19207;-23.482;-46.500;2022-10-16T15:46:35;9.20;;;4.40;;
21014;SDS011;19207;-23.482;-46.500;2022-10-16T15:49:22;7.37;;;4.50;;
21014;SDS011;19207;-23.482;-46.500;2022-10-16T15:52:09;7.07;;;4.32;;
21014;SDS011;19207;-23.482;-46.500;2022-10-16T15:54:55;7.57;;;4.80;;
21014;SDS011;19207;-23.482;-46.500;2022-10-16T15:57:42;7.90;;;4.30;;
21014;SDS011;19207;-23.482;-46.500;2022-10-16T16:00:28;9.57;;;4.70;;
21014;SDS011;19207;-23.482;-46.500;2022-10-16T16:03:15;11.68;;;4.95;;
21014;SDS011;19207;-23.482;-46.500;2022-10-16T16:06:05;8.80;;;4.65;;
21014;SDS011;19207;-23.482;-46.500;2022-10-16T16:08:52;7.57;;;4.82;;
21014;SDS011;19207;-23.482;-46.500;2022-10-16T16:11:40;7.47;;;4.57;;
21014;SDS011;19207;-23.482;-46.500;2022-10-16T16:14:27;7.55;;;4.90;;
21014;SDS011;19207;-23.482;-46.500;2022-10-16T16:17:13;7.45;;;4.97;;
21014;SDS011;19207;-23.482;-46.500;2022-10-16T16:20:00;7.75;;;5.07;;
21014;SDS011;19207;-23.482;-46.500;2022-10-16T16:22:46;11.15;;;5.60;;
21014;SDS011;19207;-23.482;-46.500;2022-10-16T16:25:34;8.55;;;5.15;;
21014;SDS011;19207;-23.482;-46.500;2022-10-16T16:28:20;13.75;;;5.75;;
21014;SDS011;19207;-23.482;-46.500;2022-10-16T16:31:07;8.80;;;5.47;;
21014;SDS011;19207;-23.482;-46.500;2022-10-16T16:33:54;8.93;;;5.22;;
21014;SDS011;19207;-23.482;-46.500;2022-10-16T16:36:41;12.32;;;5.50;;
21014;SDS011;19207;-23.482;-46.500;2022-10-16T16:39:28;12.75;;;5.97;;
21014;SDS011;19207;-23.482;-46.500;2022-10-16T16:42:14;9.00;;;5.20;;
21014;SDS011;19207;-23.482;-46.500;2022-10-16T16:45:01;11.55;;;5.78;;
21014;SDS011;19207;-23.482;-46.500;2022-10-16T16:47:47;13.23;;;5.80;;
21014;SDS011;19207;-23.482;-46.500;2022-10-16T16:50:37;10.27;;;5.37;;
21014;SDS011;19207;-23.482;-46.500;2022-10-16T16:53:23;13.32;;;6.10;;
21014;SDS011;19207;-23.482;-46.500;2022-10-16T16:56:10;10.10;;;5.47;;
21014;SDS011;19207;-23.482;-46.500;2022-10-16T16:58:57;10.40;;;5.90;;
21014;SDS011;19207;-23.482;-46.500;2022-10-16T17:01:43;8.38;;;5.75;;
21014;SDS011;19207;-23.482;-46.500;2022-10-16T17:04:30;22.05;;;8.93;;
21014;SDS011;19207;-23.482;-46.500;2022-10-16T17:07:17;20.20;;;10.30;;
21014;SDS011;19207;-23.482;-46.500;2022-10-16T17:10:03;18.58;;;10.63;;
21014;SDS011;19207;-23.482;-46.500;2022-10-16T17:12:51;20.52;;;10.38;;
21014;SDS011;19207;-23.482;-46.500;2022-10-16T17:15:41;23.10;;;10.45;;
21014;SDS011;19207;-23.482;-46.500;2022-10-16T17:18:32;27.10;;;10.60;;
21014;SDS011;19207;-23.482;-46.500;2022-10-16T17:21:19;19.45;;;9.85;;
21014;SDS011;19207;-23.482;-46.500;2022-10-16T17:24:06;19.55;;;8.95;;
21014;SDS011;19207;-23.482;-46.500;2022-10-16T17:26:53;18.27;;;10.30;;
21014;SDS011;19207;-23.482;-46.500;2022-10-16T17:29:40;25.17;;;10.23;;
21014;SDS011;19207;-23.482;-46.500;2022-10-16T17:32:26;18.42;;;10.07;;
21014;SDS011;19207;-23.482;-46.500;2022-10-16T17:35:13;22.65;;;10.75;;
21014;SDS011;19207;-23.482;-46.500;2022-10-16T17:38:01;24.27;;;11.27;;
21014;SDS011;19207;-23.482;-46.500;2022-10-16T17:40:47;19.75;;;11.05;;
21014;SDS011;19207;-23.482;-46.500;2022-10-16T17:43:34;25.08;;;10.85;;
21014;SDS011;19207;-23.482;-46.500;2022-10-16T17:46:22;26.10;;;13.27;;
21014;SDS011;19207;-23.482;-46.500;2022-10-16T17:49:09;30.73;;;12.88;;